createdAt,value
2023-04-22T00:00:18.550Z,94581.91
2023-04-22T00:02:48.480Z,94579.81
2023-04-22T00:05:20.542Z,94576.63
2023-04-22T00:07:50.188Z,94576.41
2023-04-22T00:10:19.384Z,94579.06
2023-04-22T00:12:49.513Z,94575.25
2023-04-22T00:15:22.217Z,94572.84
2023-04-22T00:17:51.528Z,94574.88
2023-04-22T00:20:22.127Z,94573.19
2023-04-22T00:22:51.456Z,94573.63
2023-04-22T00:25:20.696Z,94574.66
2023-04-22T00:27:49.745Z,94583.19
2023-04-22T00:30:20.325Z,94588.56
2023-04-22T00:32:49.560Z,94584.72
2023-04-22T00:35:18.756Z,94593.97
2023-04-22T00:37:48.022Z,94584.34
2023-04-22T00:40:17.175Z,94592.19
2023-04-22T00:42:46.286Z,94584.28
2023-04-22T00:45:18.755Z,94591.25
2023-04-22T00:47:50.001Z,94589.44
2023-04-22T00:50:19.689Z,94592.19
2023-04-22T00:52:48.684Z,94590.69
2023-04-22T00:55:17.964Z,94592.13
2023-04-22T00:57:47.783Z,94589.88
2023-04-22T01:00:17.654Z,94585.16
2023-04-22T01:02:46.999Z,94595.78
2023-04-22T01:05:18.236Z,94594.72
2023-04-22T01:07:47.520Z,94597.09
2023-04-22T01:10:16.596Z,94589.66
2023-04-22T01:12:46.033Z,94595.59
2023-04-22T01:15:15.325Z,94584.03
2023-04-22T01:17:44.924Z,94578.19
2023-04-22T01:20:14.530Z,94580.97
2023-04-22T01:22:48.153Z,94583.59
2023-04-22T01:25:19.086Z,94585.44
2023-04-22T01:27:49.708Z,94586.09
2023-04-22T01:30:19.593Z,94585.06
2023-04-22T01:32:48.936Z,94576.34
2023-04-22T01:35:18.237Z,94582.97
2023-04-22T01:37:47.241Z,94584.41
2023-04-22T01:40:22.833Z,94579.97
2023-04-22T01:42:52.803Z,94582.97
2023-04-22T01:45:21.848Z,94581.56
2023-04-22T01:47:51.192Z,94580.53
2023-04-22T01:50:23.552Z,94568.41
2023-04-22T01:52:52.801Z,94578.06
2023-04-22T01:55:26.426Z,94577.34
2023-04-22T01:57:55.709Z,94581.94
2023-04-22T02:00:25.284Z,94582.03
2023-04-22T02:02:54.561Z,94579.13
2023-04-22T02:05:24.006Z,94577.22
2023-04-22T02:07:54.592Z,94572.22
2023-04-22T02:10:23.981Z,94571.28
2023-04-22T02:12:54.590Z,94576.94
2023-04-22T02:15:24.266Z,94567.53
2023-04-22T02:17:56.387Z,94564.94
2023-04-22T02:20:25.735Z,94573.13
2023-04-22T02:22:55.131Z,94576.59
2023-04-22T02:25:24.251Z,94574.00
2023-04-22T02:27:54.693Z,94570.03
2023-04-22T02:30:24.326Z,94567.22
2023-04-22T02:32:53.404Z,94576.97
2023-04-22T02:35:22.604Z,94571.09
2023-04-22T02:37:53.670Z,94573.03
2023-04-22T02:40:28.269Z,94573.84
2023-04-22T02:42:58.970Z,94570.09
2023-04-22T02:45:30.103Z,94576.13
2023-04-22T02:47:59.687Z,94579.44
2023-04-22T02:50:28.917Z,94578.06
2023-04-22T02:52:58.043Z,94580.34
2023-04-22T02:55:27.331Z,94586.34
2023-04-22T02:57:56.325Z,94587.13
2023-04-22T03:00:26.876Z,94581.88
2023-04-22T03:02:57.384Z,94583.91
2023-04-22T03:05:31.116Z,94582.59
2023-04-22T03:08:03.470Z,94587.44
2023-04-22T03:10:33.822Z,94583.63
2023-04-22T03:13:03.233Z,94576.97
2023-04-22T03:15:37.202Z,94591.50
2023-04-22T03:18:07.386Z,94591.00
2023-04-22T03:20:37.095Z,94582.72
2023-04-22T03:23:07.307Z,94586.63
2023-04-22T03:25:37.940Z,94595.78
2023-04-22T03:28:08.002Z,94596.22
2023-04-22T03:30:38.775Z,94594.25
2023-04-22T03:33:08.078Z,94601.38
2023-04-22T03:35:44.960Z,94598.47
2023-04-22T03:38:14.340Z,94602.41
2023-04-22T03:40:44.234Z,94603.72
2023-04-22T03:43:26.192Z,94605.94
2023-04-22T03:46:05.102Z,94606.66
2023-04-22T03:48:36.418Z,94605.53
2023-04-22T03:51:11.514Z,94605.41
2023-04-22T03:53:42.752Z,94604.69
2023-04-22T03:56:15.192Z,94611.25
2023-04-22T03:58:47.626Z,94618.28
2023-04-22T04:01:19.358Z,94613.88
2023-04-22T04:03:56.201Z,94616.72
2023-04-22T04:06:29.649Z,94622.97
2023-04-22T04:09:01.836Z,94620.34
2023-04-22T04:11:32.081Z,94620.97
2023-04-22T04:14:03.663Z,94628.75
2023-04-22T04:16:50.168Z,94629.38
2023-04-22T04:19:28.603Z,94626.69
2023-04-22T04:22:00.714Z,94626.75
2023-04-22T04:24:33.865Z,94632.44
2023-04-22T04:27:09.098Z,94628.88
2023-04-22T04:29:45.262Z,94630.84
2023-04-22T04:32:20.396Z,94636.75
2023-04-22T04:34:49.927Z,94647.00
2023-04-22T04:37:20.337Z,94648.59
2023-04-22T04:40:02.911Z,94651.97
2023-04-22T04:42:45.297Z,94645.84
2023-04-22T04:45:21.163Z,94650.50
2023-04-22T04:47:53.073Z,94654.09
2023-04-22T04:50:28.550Z,94651.53
2023-04-22T04:53:01.822Z,94665.13
2023-04-22T04:55:37.812Z,94658.31
2023-04-22T04:58:12.325Z,94661.25
2023-04-22T05:00:43.780Z,94673.56
2023-04-22T05:03:15.705Z,94672.22
2023-04-22T05:05:46.573Z,94677.44
2023-04-22T05:08:15.955Z,94681.41
2023-04-22T05:10:47.840Z,94684.94
2023-04-22T05:13:18.972Z,94684.72
2023-04-22T05:15:49.916Z,94681.84
2023-04-22T05:18:21.857Z,94682.28
2023-04-22T05:20:51.260Z,94677.22
2023-04-22T05:23:22.305Z,94683.97
2023-04-22T05:25:55.037Z,94681.38
2023-04-22T05:28:25.986Z,94681.97
2023-04-22T05:30:58.847Z,94675.00
2023-04-22T05:33:32.490Z,94683.97
2023-04-22T05:36:01.895Z,94673.94
2023-04-22T05:38:31.108Z,94679.72
2023-04-22T05:41:00.428Z,94678.84
2023-04-22T05:43:31.015Z,94679.88
2023-04-22T05:46:08.427Z,94679.44
2023-04-22T05:48:41.909Z,94684.97
2023-04-22T05:51:21.472Z,94681.06
2023-04-22T05:53:51.552Z,94680.16
2023-04-22T05:56:21.290Z,94686.53
2023-04-22T05:58:50.504Z,94678.28
2023-04-22T06:01:25.019Z,94678.09
2023-04-22T06:04:01.180Z,94692.09
2023-04-22T06:06:32.709Z,94693.06
2023-04-22T06:09:01.929Z,94686.06
2023-04-22T06:11:30.993Z,94687.28
2023-04-22T06:14:00.135Z,94687.44
2023-04-22T06:16:30.090Z,94690.72
2023-04-22T06:19:01.175Z,94686.66
2023-04-22T06:21:32.770Z,94690.47
2023-04-22T06:24:02.562Z,94695.25
2023-04-22T06:26:31.778Z,94694.28
2023-04-22T06:29:01.084Z,94677.13
2023-04-22T06:31:30.366Z,94692.09
2023-04-22T06:34:01.076Z,94688.69
2023-04-22T06:36:30.898Z,94683.72
2023-04-22T06:39:04.389Z,94684.81
2023-04-22T06:41:50.429Z,94692.34
2023-04-22T06:44:45.889Z,94697.41
2023-04-22T06:47:25.499Z,94687.03
2023-04-22T06:50:03.758Z,94685.94
2023-04-22T06:52:39.001Z,94689.13
2023-04-22T06:55:08.935Z,94691.22
2023-04-22T06:57:38.321Z,94693.34
2023-04-22T07:00:09.973Z,94688.78
2023-04-22T07:02:42.185Z,94692.75
2023-04-22T07:05:13.139Z,94692.69
2023-04-22T07:07:42.571Z,94699.84
2023-04-22T07:10:17.443Z,94696.34
2023-04-22T07:13:06.591Z,94701.84
2023-04-22T07:15:36.017Z,94698.84
2023-04-22T07:18:05.224Z,94694.47
2023-04-22T07:20:35.858Z,94693.53
2023-04-22T07:23:05.180Z,94687.94
2023-04-22T07:25:34.726Z,94694.19
2023-04-22T07:28:03.964Z,94693.31
2023-04-22T07:30:33.199Z,94692.44
2023-04-22T07:33:02.590Z,94696.00
2023-04-22T07:35:32.078Z,94697.13
2023-04-22T07:38:02.908Z,94690.25
2023-04-22T07:40:32.013Z,94689.03
2023-04-22T07:43:01.633Z,94695.75
2023-04-22T07:45:30.769Z,94689.25
2023-04-22T07:48:00.282Z,94700.44
2023-04-22T07:50:29.561Z,94690.94
2023-04-22T07:52:59.097Z,94698.16
2023-04-22T07:55:29.628Z,94692.44
2023-04-22T07:58:01.172Z,94694.34
2023-04-22T08:00:30.806Z,94696.97
2023-04-22T08:03:00.056Z,94684.00
2023-04-22T08:05:29.422Z,94686.00
2023-04-22T08:07:58.673Z,94687.09
2023-04-22T08:10:29.374Z,94678.88
2023-04-22T08:12:58.583Z,94671.63
2023-04-22T08:15:27.922Z,94682.34
2023-04-22T08:17:57.151Z,94671.13
2023-04-22T08:20:26.337Z,94672.53
2023-04-22T08:22:58.493Z,94664.06
2023-04-22T08:25:29.892Z,94673.25
2023-04-22T08:27:59.349Z,94671.16
2023-04-22T08:30:28.591Z,94660.75
2023-04-22T08:32:57.972Z,94657.91
2023-04-22T08:35:27.235Z,94662.03
2023-04-22T08:37:56.548Z,94658.63
2023-04-22T08:40:25.686Z,94658.78
2023-04-22T08:42:57.417Z,94659.13
2023-04-22T08:45:26.746Z,94649.06
2023-04-22T08:47:57.311Z,94651.78
2023-04-22T08:50:26.736Z,94641.66
2023-04-22T08:52:56.032Z,94649.38
2023-04-22T08:55:25.348Z,94650.22
2023-04-22T08:57:56.109Z,94641.75
2023-04-22T09:00:25.646Z,94655.25
2023-04-22T09:02:56.193Z,94656.97
2023-04-22T09:05:28.075Z,94647.09
2023-04-22T09:07:58.227Z,94640.09
2023-04-22T09:10:28.692Z,94654.00
2023-04-22T09:13:00.466Z,94647.22
2023-04-22T09:15:31.204Z,94644.91
2023-04-22T09:18:00.936Z,94639.94
2023-04-22T09:20:31.486Z,94632.28
2023-04-22T09:23:05.452Z,94631.38
2023-04-22T09:25:36.820Z,94634.94
2023-04-22T09:28:07.749Z,94629.06
2023-04-22T09:30:38.120Z,94633.84
2023-04-22T09:33:09.209Z,94629.81
2023-04-22T09:35:40.609Z,94629.31
2023-04-22T09:38:11.323Z,94630.03
2023-04-22T09:40:44.171Z,94616.47
2023-04-22T09:43:19.273Z,94622.72
2023-04-22T09:45:48.638Z,94622.66
2023-04-22T09:48:20.804Z,94623.84
2023-04-22T09:50:52.032Z,94620.63
2023-04-22T09:53:23.295Z,94620.53
2023-04-22T09:55:55.970Z,94635.09
2023-04-22T09:58:28.096Z,94623.41
2023-04-22T10:00:59.533Z,94616.78
2023-04-22T10:03:28.774Z,94609.16
2023-04-22T10:05:57.769Z,94609.28
2023-04-22T10:08:27.155Z,94609.31
2023-04-22T10:10:57.188Z,94607.72
2023-04-22T10:13:27.975Z,94606.06
2023-04-22T10:15:58.922Z,94615.34
2023-04-22T10:18:29.751Z,94596.41
2023-04-22T10:21:00.580Z,94596.19
2023-04-22T10:23:34.751Z,94594.84
2023-04-22T10:26:06.720Z,94589.19
2023-04-22T10:28:37.400Z,94585.13
2023-04-22T10:31:08.702Z,94589.56
2023-04-22T10:33:39.490Z,94587.41
2023-04-22T10:36:17.747Z,94578.75
2023-04-22T10:39:17.907Z,94590.38
2023-04-22T10:41:53.998Z,94597.81
2023-04-22T10:44:28.993Z,94604.06
2023-04-22T10:47:02.559Z,94603.03
2023-04-22T10:49:33.009Z,94596.28
2023-04-22T10:52:04.307Z,94598.47
2023-04-22T10:55:01.731Z,94607.59
2023-04-22T10:57:40.372Z,94606.16
2023-04-22T11:00:45.599Z,94602.47
2023-04-22T11:03:18.633Z,94596.66
2023-04-22T11:05:48.069Z,94592.59
2023-04-22T11:08:23.302Z,94599.41
2023-04-22T11:10:54.263Z,94597.22
2023-04-22T11:13:24.098Z,94601.88
2023-04-22T11:15:57.085Z,94597.81
2023-04-22T11:18:27.391Z,94588.22
2023-04-22T11:21:06.651Z,94591.56
2023-04-22T11:23:36.385Z,94598.66
2023-04-22T11:26:07.457Z,94596.13
2023-04-22T11:28:37.711Z,94597.06
2023-04-22T11:31:10.581Z,94601.53
2023-04-22T11:33:39.932Z,94599.53
2023-04-22T11:36:13.634Z,94607.88
2023-04-22T11:38:42.983Z,94608.47
2023-04-22T11:41:12.152Z,94608.22
2023-04-22T11:43:48.538Z,94622.25
2023-04-22T11:46:30.098Z,94620.72
2023-04-22T11:49:14.260Z,94614.34
2023-04-22T11:51:57.229Z,94616.31
2023-04-22T11:54:37.904Z,94624.81
2023-04-22T11:57:11.398Z,94624.13
2023-04-22T11:59:41.224Z,94625.72
2023-04-22T12:02:12.433Z,94623.00
2023-04-22T12:04:42.595Z,94620.53
2023-04-22T12:07:14.101Z,94613.75
2023-04-22T12:09:43.685Z,94618.75
2023-04-22T12:12:12.928Z,94626.00
2023-04-22T12:14:42.441Z,94626.00
2023-04-22T12:17:13.540Z,94631.22
2023-04-22T12:19:43.043Z,94619.31
2023-04-22T12:22:12.137Z,94621.16
2023-04-22T12:24:47.429Z,94618.22
2023-04-22T12:27:16.774Z,94613.53
2023-04-22T12:29:54.152Z,94617.28
2023-04-22T12:32:25.617Z,94617.22
2023-04-22T12:34:55.261Z,94613.53
2023-04-22T12:37:24.424Z,94620.97
2023-04-22T12:39:53.638Z,94610.69
2023-04-22T12:42:22.687Z,94612.16
2023-04-22T12:44:51.893Z,94614.56
2023-04-22T12:47:21.204Z,94612.50
2023-04-22T12:49:52.525Z,94613.44
2023-04-22T12:52:21.816Z,94617.41
2023-04-22T12:54:51.097Z,94611.03
2023-04-22T12:57:20.258Z,94609.72
2023-04-22T12:59:49.554Z,94613.19
2023-04-22T13:02:18.887Z,94604.91
2023-04-22T13:04:48.102Z,94600.34
2023-04-22T13:07:18.922Z,94607.75
2023-04-22T13:09:50.829Z,94617.66
2023-04-22T13:12:20.058Z,94606.19
2023-04-22T13:14:49.489Z,94616.06
2023-04-22T13:17:18.554Z,94608.69
2023-04-22T13:19:50.932Z,94615.59
2023-04-22T13:22:21.517Z,94616.94
2023-04-22T13:24:50.669Z,94615.22
2023-04-22T13:27:20.352Z,94623.00
2023-04-22T13:29:49.556Z,94621.34
2023-04-22T13:32:18.969Z,94609.41
2023-04-22T13:34:48.768Z,94603.44
2023-04-22T13:37:20.438Z,94608.47
2023-04-22T13:39:51.002Z,94614.22
2023-04-22T13:42:20.247Z,94611.53
2023-04-22T13:44:49.446Z,94607.59
2023-04-22T13:47:18.803Z,94599.63
2023-04-22T13:49:48.003Z,94602.81
2023-04-22T13:52:17.470Z,94604.56
2023-04-22T13:54:46.461Z,94600.78
2023-04-22T13:57:17.145Z,94600.78
2023-04-22T13:59:46.584Z,94611.13
2023-04-22T14:02:15.875Z,94610.22
2023-04-22T14:04:45.124Z,94606.38
2023-04-22T14:07:14.752Z,94611.72
2023-04-22T14:09:44.054Z,94599.16
2023-04-22T14:12:13.713Z,94612.06
2023-04-22T14:14:44.275Z,94609.31
2023-04-22T14:17:13.522Z,94603.41
2023-04-22T14:19:45.086Z,94593.13
2023-04-22T14:22:14.207Z,94604.19
2023-04-22T14:24:43.340Z,94597.88
2023-04-22T14:27:12.686Z,94592.41
2023-04-22T14:29:42.363Z,94585.78
2023-04-22T14:32:13.381Z,94588.19
2023-04-22T14:34:42.574Z,94596.22
2023-04-22T14:37:12.080Z,94595.13
2023-04-22T14:39:41.709Z,94592.47
2023-04-22T14:42:11.244Z,94595.72
2023-04-22T14:44:40.440Z,94594.59
2023-04-22T14:47:09.739Z,94604.81
2023-04-22T14:49:40.751Z,94616.50
2023-04-22T14:52:10.294Z,94615.88
2023-04-22T14:54:39.481Z,94611.13
2023-04-22T14:57:08.648Z,94612.41
2023-04-22T14:59:37.841Z,94614.75
2023-04-22T15:02:07.449Z,94618.16
2023-04-22T15:04:37.276Z,94617.09
2023-04-22T15:07:08.033Z,94623.59
2023-04-22T15:09:37.358Z,94623.78
2023-04-22T15:12:06.691Z,94625.25
2023-04-22T15:14:37.004Z,94623.34
2023-04-22T15:17:07.362Z,94616.81
2023-04-22T15:19:36.805Z,94614.53
2023-04-22T15:22:06.209Z,94624.50
2023-04-22T15:24:36.885Z,94632.31
2023-04-22T15:27:06.292Z,94628.59
2023-04-22T15:29:35.470Z,94628.56
2023-04-22T15:32:04.778Z,94625.06
2023-04-22T15:34:33.983Z,94638.31
2023-04-22T15:37:03.330Z,94632.75
2023-04-22T15:39:32.515Z,94633.34
2023-04-22T15:42:03.340Z,94627.22
2023-04-22T15:44:32.510Z,94633.34
2023-04-22T15:47:02.016Z,94642.78
2023-04-22T15:49:31.328Z,94638.09
2023-04-22T15:52:01.373Z,94635.69
2023-04-22T15:54:30.860Z,94639.78
2023-04-22T15:57:00.280Z,94642.97
2023-04-22T15:59:31.102Z,94640.88
2023-04-22T16:02:00.581Z,94641.47
2023-04-22T16:04:30.316Z,94642.63
2023-04-22T16:06:59.653Z,94644.28
2023-04-22T16:09:28.829Z,94643.25
2023-04-22T16:11:57.839Z,94645.72
2023-04-22T16:14:26.897Z,94638.47
2023-04-22T16:16:57.692Z,94645.72
2023-04-22T16:19:27.031Z,94643.91
2023-04-22T16:21:56.143Z,94642.63
2023-04-22T16:24:25.569Z,94645.00
2023-04-22T16:26:54.722Z,94650.94
2023-04-22T16:29:23.778Z,94641.38
2023-04-22T16:31:53.618Z,94654.50
2023-04-22T16:34:24.312Z,94643.53
2023-04-22T16:36:53.564Z,94650.56
2023-04-22T16:39:22.816Z,94652.97
2023-04-22T16:41:52.048Z,94661.03
2023-04-22T16:44:21.628Z,94654.09
2023-04-22T16:46:50.884Z,94669.06
2023-04-22T16:49:19.998Z,94668.59
2023-04-22T16:51:50.930Z,94673.34
2023-04-22T16:54:20.157Z,94680.06
2023-04-22T16:56:49.349Z,94687.28
2023-04-22T16:59:18.510Z,94683.03
2023-04-22T17:01:47.993Z,94690.50
2023-04-22T17:04:17.172Z,94688.34
2023-04-22T17:06:47.251Z,94698.47
2023-04-22T17:09:18.041Z,94699.28
2023-04-22T17:11:47.215Z,94699.53
2023-04-22T17:14:16.777Z,94709.13
2023-04-22T17:16:45.983Z,94712.06
2023-04-22T17:19:15.198Z,94713.41
2023-04-22T17:21:44.470Z,94731.44
2023-04-22T17:24:13.656Z,94733.03
2023-04-22T17:26:44.339Z,94740.97
2023-04-22T17:29:13.426Z,94742.56
2023-04-22T17:31:42.815Z,94748.97
2023-04-22T17:34:12.055Z,94744.94
2023-04-22T17:36:41.645Z,94752.38
2023-04-22T17:39:12.091Z,94741.97
2023-04-22T17:41:41.408Z,94744.66
2023-04-22T17:44:12.011Z,94748.91
2023-04-22T17:46:41.857Z,94751.84
2023-04-22T17:49:11.158Z,94756.38
2023-04-22T17:51:40.240Z,94751.56
2023-04-22T17:54:09.402Z,94752.09
2023-04-22T17:56:38.504Z,94763.00
2023-04-22T17:59:07.660Z,94757.69
2023-04-22T18:01:39.035Z,94756.34
2023-04-22T18:04:08.758Z,94763.81
2023-04-22T18:06:38.159Z,94755.84
2023-04-22T18:09:07.225Z,94770.72
2023-04-22T18:11:36.563Z,94778.72
2023-04-22T18:14:05.887Z,94776.56
2023-04-22T18:16:35.028Z,94781.09
2023-04-22T18:19:07.028Z,94786.97
2023-04-22T18:21:39.637Z,94789.38
2023-04-22T18:24:10.830Z,94798.63
2023-04-22T18:26:40.798Z,94803.91
2023-04-22T18:29:09.930Z,94799.09
2023-04-22T18:31:39.137Z,94805.19
2023-04-22T18:34:13.003Z,94798.81
2023-04-22T18:36:42.143Z,94801.72
2023-04-22T18:39:11.464Z,94803.59
2023-04-22T18:41:40.596Z,94815.84
2023-04-22T18:44:09.791Z,94814.97
2023-04-22T18:46:38.872Z,94817.69
2023-04-22T18:49:09.527Z,94819.25
2023-04-22T18:51:40.000Z,94823.97
2023-04-22T18:54:11.365Z,94820.19
2023-04-22T18:56:40.336Z,94827.78
2023-04-22T18:59:09.690Z,94821.81
2023-04-22T19:01:38.719Z,94824.00
2023-04-22T19:04:08.187Z,94820.69
2023-04-22T19:06:39.085Z,94824.06
2023-04-22T19:09:08.230Z,94827.97
2023-04-22T19:11:37.584Z,94822.56
2023-04-22T19:14:06.919Z,94818.38
2023-04-22T19:16:36.484Z,94823.16
2023-04-22T19:19:05.735Z,94816.50
2023-04-22T19:21:34.987Z,94822.03
2023-04-22T19:24:06.098Z,94821.09
2023-04-22T19:26:35.538Z,94828.81
2023-04-22T19:29:04.888Z,94819.47
2023-04-22T19:31:34.035Z,94816.34
2023-04-22T19:34:03.511Z,94814.56
2023-04-22T19:36:32.813Z,94824.25
2023-04-22T19:39:02.146Z,94826.84
2023-04-22T19:41:33.701Z,94824.94
2023-04-22T19:44:03.185Z,94831.34
2023-04-22T19:46:32.322Z,94832.47
2023-04-22T19:49:01.992Z,94832.47
2023-04-22T19:51:31.425Z,94834.63
2023-04-22T19:54:00.809Z,94838.97
2023-04-22T19:56:31.753Z,94844.28
2023-04-22T19:59:01.548Z,94843.06
2023-04-22T20:01:31.361Z,94840.81
2023-04-22T20:04:01.042Z,94843.72
2023-04-22T20:06:30.625Z,94852.47
2023-04-22T20:09:00.274Z,94839.69
2023-04-22T20:11:29.929Z,94837.03
2023-04-22T20:14:01.267Z,94848.59
2023-04-22T20:16:30.997Z,94847.78
2023-04-22T20:19:00.314Z,94838.78
2023-04-22T20:21:30.614Z,94830.81
2023-04-22T20:24:00.736Z,94840.63
2023-04-22T20:26:30.085Z,94837.66
2023-04-22T20:29:01.938Z,94842.91
2023-04-22T20:31:31.350Z,94838.31
2023-04-22T20:34:01.178Z,94841.66
2023-04-22T20:36:31.031Z,94837.31
2023-04-22T20:39:05.432Z,94844.13
2023-04-22T20:41:39.068Z,94847.22
2023-04-22T20:44:09.872Z,94842.63
2023-04-22T20:46:39.086Z,94850.91
2023-04-22T20:49:08.760Z,94848.75
2023-04-22T20:51:38.080Z,94847.69
2023-04-22T20:54:17.849Z,94846.94
2023-04-22T20:56:57.946Z,94850.25
2023-04-22T20:59:28.981Z,94843.09
2023-04-22T21:01:59.307Z,94854.47
2023-04-22T21:04:29.552Z,94843.38
2023-04-22T21:07:04.173Z,94840.72
2023-04-22T21:09:34.781Z,94848.91
2023-04-22T21:12:04.501Z,94844.50
2023-04-22T21:14:35.972Z,94844.97
2023-04-22T21:17:12.915Z,94850.63
2023-04-22T21:19:48.483Z,94845.22
2023-04-22T21:22:21.070Z,94847.94
2023-04-22T21:24:51.037Z,94840.69
2023-04-22T21:27:21.570Z,94842.50
2023-04-22T21:29:53.017Z,94848.19
2023-04-22T21:32:22.165Z,94844.66
2023-04-22T21:34:51.263Z,94844.31
2023-04-22T21:37:20.359Z,94842.97
2023-04-22T21:39:49.502Z,94847.34
2023-04-22T21:42:18.601Z,94842.28
2023-04-22T21:44:50.008Z,94842.53
2023-04-22T21:47:20.573Z,94834.94
2023-04-22T21:49:49.591Z,94833.03
2023-04-22T21:52:19.189Z,94844.28
2023-04-22T21:54:48.564Z,94844.53
2023-04-22T21:57:17.894Z,94844.41
2023-04-22T21:59:47.003Z,94843.41
2023-04-22T22:02:16.227Z,94854.00
2023-04-22T22:04:47.021Z,94851.00
2023-04-22T22:07:17.846Z,94859.03
2023-04-22T22:09:47.811Z,94852.84
2023-04-22T22:12:16.966Z,94859.22
2023-04-22T22:14:46.065Z,94862.31
2023-04-22T22:17:15.294Z,94858.16
2023-04-22T22:19:44.472Z,94862.81
2023-04-22T22:22:15.002Z,94853.97
2023-04-22T22:24:44.419Z,94859.56
2023-04-22T22:27:13.620Z,94857.38
2023-04-22T22:29:42.860Z,94851.13
2023-04-22T22:32:11.923Z,94849.38
2023-04-22T22:34:41.198Z,94851.38
2023-04-22T22:37:10.322Z,94849.09
2023-04-22T22:39:40.974Z,94849.47
2023-04-22T22:42:10.274Z,94854.28
2023-04-22T22:44:39.473Z,94854.06
2023-04-22T22:47:08.809Z,94854.03
2023-04-22T22:49:38.197Z,94856.34
2023-04-22T22:52:07.515Z,94860.09
2023-04-22T22:54:38.908Z,94854.16
2023-04-22T22:57:09.897Z,94851.44
2023-04-22T22:59:39.435Z,94853.16
2023-04-22T23:02:08.791Z,94853.16
2023-04-22T23:04:39.580Z,94849.84
2023-04-22T23:07:11.920Z,94848.91
2023-04-22T23:09:40.961Z,94854.09
2023-04-22T23:12:11.510Z,94853.16
2023-04-22T23:14:41.033Z,94851.31
2023-04-22T23:17:10.506Z,94849.13
2023-04-22T23:19:40.683Z,94852.53
2023-04-22T23:22:11.000Z,94860.75
2023-04-22T23:24:41.262Z,94842.94
2023-04-22T23:27:12.903Z,94848.09
2023-04-22T23:29:44.176Z,94843.56
2023-04-22T23:32:16.602Z,94842.25
2023-04-22T23:34:47.350Z,94844.16
2023-04-22T23:37:20.994Z,94835.47
2023-04-22T23:39:50.042Z,94850.91
2023-04-22T23:42:20.679Z,94852.94
2023-04-22T23:44:49.957Z,94848.13
2023-04-22T23:47:19.027Z,94845.84
2023-04-22T23:49:48.199Z,94847.50
2023-04-22T23:52:17.240Z,94840.50
2023-04-22T23:54:46.724Z,94847.28
2023-04-22T23:57:16.426Z,94846.16
2023-04-22T23:59:48.042Z,94837.84
